Terminal Aerodrome Forecast
Issued by NWS Cleveland, OH

Home | Current Version | Previous Version | Graphics & Text | Print | Product List | Glossary On
Versions: 1 2 3 4 5 6 7 8 9 10 11 12 13 14 15 16 17
146
FTUS41 KCLE 290405 AAA
TAFERI
TAF AMD
KERI 290405Z 2904/2924 VRB03KT P6SM SCT015 BKN200
      TEMPO 2904/2906 BKN015
     FM290700 02005KT P6SM SCT200
     FM291500 36010KT P6SM FEW040=

USA.gov is the U.S. government's official web portal to all federal, state and local government web resources and services.